Time;durP1;ratioP1;P1;durP2;ratioP2;P2;SDS_P1;SDS_P2;PMS_P1;PMS_P2;Temp;Humidity;BMP_temperature;BMP_pressure;BME280_temperature;BME280_humidity;BME280_pressure;Samples;Min_cycle;Max_cycle;Signal;HPM_P1;HPM_P2
2024/04/15 04:04:41;;;;;;;1.47;1.40;;;8.70;97.30;;;;;;5339165;26;20606;-61
2024/04/15 04:07:07;;;;;;;1.70;1.33;;;8.80;97.30;;;;;;5355406;26;20983;-62
2024/04/15 04:09:32;;;;;;;4.93;2.17;;;8.80;97.30;;;;;;5311107;26;20783;-62
2024/04/15 04:11:58;;;;;;;6.53;2.03;;;8.70;97.30;;;;;;5310391;26;20477;-62
2024/04/15 04:14:23;;;;;;;1.30;1.20;;;8.70;97.30;;;;;;5341475;26;20564;-62
2024/04/15 04:16:49;;;;;;;3.73;2.50;;;8.70;97.30;;;;;;5340780;26;20253;-62
2024/04/15 04:19:14;;;;;;;4.20;1.50;;;8.70;97.30;;;;;;5355394;26;20758;-63
2024/04/15 04:21:40;;;;;;;1.83;1.73;;;8.70;97.30;;;;;;5341133;26;20566;-62
2024/04/15 04:24:06;;;;;;;2.13;1.10;;;8.70;97.30;;;;;;5355629;26;20235;-63
2024/04/15 04:26:31;;;;;;;1.70;1.60;;;8.60;97.30;;;;;;5348355;26;20673;-63
2024/04/15 04:28:57;;;;;;;0.97;0.87;;;8.70;97.30;;;;;;5315487;26;20619;-62
2024/04/15 04:31:22;;;;;;;1.57;1.57;;;8.60;97.30;;;;;;5340813;26;20286;-63
2024/04/15 04:33:48;;;;;;;1.47;1.37;;;8.60;97.30;;;;;;5322241;26;20278;-63
2024/04/15 04:36:17;;;;;;;1.33;1.23;;;8.60;97.30;;;;;;5309265;26;20281;-63
2024/04/15 04:38:43;;;;;;;2.13;1.97;;;8.60;97.30;;;;;;5339478;26;20270;-64
2024/04/15 04:41:09;;;;;;;1.20;1.10;;;8.50;97.30;;;;;;5356628;26;20461;-61
2024/04/15 04:43:34;;;;;;;1.80;1.70;;;8.60;97.30;;;;;;5360099;26;20242;-62
2024/04/15 04:46:08;;;;;;;1.17;1.07;;;8.60;97.30;;;;;;5313945;26;20246;-62
2024/04/15 04:48:33;;;;;;;1.77;1.67;;;8.60;97.30;;;;;;5362577;26;20292;-62
2024/04/15 04:51:08;;;;;;;1.20;1.10;;;8.50;97.30;;;;;;5373960;26;21195;-62
2024/04/15 04:53:33;;;;;;;1.63;1.53;;;8.40;97.30;;;;;;5348394;26;20234;-62
2024/04/15 04:56:15;;;;;;;3.73;1.73;;;8.50;97.30;;;;;;5324189;26;20509;-62
2024/04/15 04:58:41;;;;;;;2.07;1.93;;;8.50;97.30;;;;;;5336328;26;20716;-63
2024/04/15 05:01:11;;;;;;;2.00;1.90;;;8.50;97.30;;;;;;5338148;26;20470;-64
2024/04/15 05:03:44;;;;;;;1.87;1.73;;;8.50;97.30;;;;;;5295664;26;20575;-62
2024/04/15 05:06:10;;;;;;;1.47;1.37;;;8.40;97.30;;;;;;5315694;26;21085;-63
2024/04/15 05:08:37;;;;;;;2.70;2.50;;;8.40;97.30;;;;;;5304629;26;20515;-62
2024/04/15 05:11:03;;;;;;;2.23;2.03;;;8.40;97.30;;;;;;5303180;26;20527;-62
2024/04/15 05:13:28;;;;;;;1.73;1.47;;;8.40;97.30;;;;;;5302865;26;20494;-63
2024/04/15 05:16:04;;;;;;;1.67;1.57;;;8.40;97.30;;;;;;5304880;26;20824;-63
2024/04/15 05:18:30;;;;;;;1.40;1.30;;;8.40;97.30;;;;;;5304492;26;20279;-62
2024/04/15 05:20:57;;;;;;;1.47;1.40;;;8.50;97.30;;;;;;5316630;26;20493;-62
2024/04/15 05:23:22;;;;;;;3.53;2.03;;;8.50;97.30;;;;;;5304168;26;20514;-63
2024/04/15 05:25:48;;;;;;;1.43;1.33;;;8.50;97.30;;;;;;5304811;26;20459;-63
2024/04/15 05:28:13;;;;;;;1.60;1.50;;;8.50;97.30;;;;;;5302399;26;20236;-62
2024/04/15 05:30:39;;;;;;;2.37;2.17;;;8.50;97.30;;;;;;5297286;26;20275;-63
2024/04/15 05:33:04;;;;;;;1.40;1.30;;;8.40;97.30;;;;;;5312023;26;20327;-64
2024/04/15 05:35:30;;;;;;;1.77;1.67;;;8.50;97.30;;;;;;5302517;26;20236;-64
2024/04/15 05:37:55;;;;;;;1.30;1.20;;;8.50;97.30;;;;;;5302647;26;20333;-62
2024/04/15 05:40:21;;;;;;;1.20;1.10;;;8.50;97.30;;;;;;5319600;26;20621;-63
2024/04/15 05:42:46;;;;;;;1.00;0.90;;;8.50;97.30;;;;;;5319375;26;20336;-63
2024/04/15 05:45:12;;;;;;;2.30;1.77;;;8.50;97.30;;;;;;5305673;26;20236;-64
2024/04/15 05:47:37;;;;;;;2.23;2.03;;;8.50;97.30;;;;;;5297270;26;20300;-63
2024/04/15 05:50:03;;;;;;;2.83;1.40;;;8.50;97.30;;;;;;5296529;26;20339;-63
2024/04/15 05:52:30;;;;;;;1.07;0.97;;;8.60;97.30;;;;;;5305722;26;20322;-63
2024/04/15 05:54:55;;;;;;;3.40;2.07;;;8.60;97.30;;;;;;5305758;26;20986;-63
2024/04/15 05:57:21;;;;;;;2.23;1.43;;;8.60;97.30;;;;;;5302931;26;20291;-64
2024/04/15 05:59:47;;;;;;;7.00;4.00;;;8.70;97.30;;;;;;5306244;26;20588;-63
2024/04/15 06:02:13;;;;;;;2.33;1.30;;;8.70;97.30;;;;;;5305748;26;20275;-64
2024/04/15 06:04:39;;;;;;;1.37;1.27;;;8.70;97.30;;;;;;5304014;26;20475;-63
2024/04/15 06:07:05;;;;;;;1.63;1.53;;;8.70;97.30;;;;;;5305592;26;20454;-64
2024/04/15 06:09:31;;;;;;;1.33;1.30;;;8.90;97.30;;;;;;5312825;26;20288;-63
2024/04/15 06:11:57;;;;;;;2.27;2.07;;;9.10;97.30;;;;;;5325396;26;20490;-63
2024/04/15 06:14:22;;;;;;;4.20;2.03;;;9.10;97.30;;;;;;5316744;26;20531;-63
2024/04/15 06:16:49;;;;;;;2.83;2.63;;;9.10;97.30;;;;;;5295712;26;20240;-63
2024/04/15 06:19:14;;;;;;;1.50;1.40;;;9.10;97.30;;;;;;5307870;26;20232;-62
2024/04/15 06:21:41;;;;;;;1.20;1.10;;;9.20;97.30;;;;;;5320360;26;20453;-64
2024/04/15 06:24:06;;;;;;;1.20;1.10;;;9.20;97.30;;;;;;5309609;26;20224;-64
2024/04/15 06:26:32;;;;;;;1.77;1.67;;;9.20;97.30;;;;;;5304963;26;20576;-66
2024/04/15 06:28:57;;;;;;;1.00;0.90;;;9.40;97.30;;;;;;5302863;26;20804;-63
2024/04/15 06:31:23;;;;;;;2.17;1.50;;;9.40;97.30;;;;;;5302956;26;20691;-62
2024/04/15 06:33:48;;;;;;;2.93;2.17;;;9.40;97.30;;;;;;5304539;26;20224;-63
2024/04/15 06:36:14;;;;;;;1.73;1.30;;;9.40;97.30;;;;;;5304558;26;20232;-62
2024/04/15 06:38:39;;;;;;;2.07;1.93;;;9.40;97.30;;;;;;5311217;26;20271;-65
2024/04/15 06:41:05;;;;;;;2.23;1.90;;;9.50;97.30;;;;;;5310223;26;20809;-63
2024/04/15 06:43:32;;;;;;;3.10;1.20;;;9.60;97.30;;;;;;5339109;26;20647;-67
2024/04/15 06:45:57;;;;;;;3.13;1.93;;;9.60;97.30;;;;;;5326599;26;20274;-64
2024/04/15 06:48:23;;;;;;;1.20;1.10;;;9.60;97.30;;;;;;5322791;26;20461;-64
2024/04/15 06:50:48;;;;;;;2.60;1.63;;;9.60;97.30;;;;;;5312380;26;20319;-62
2024/04/15 06:53:14;;;;;;;1.63;1.40;;;9.70;97.30;;;;;;5318227;26;20224;-64
2024/04/15 06:55:40;;;;;;;1.33;1.23;;;9.70;97.30;;;;;;5304612;26;20307;-65
2024/04/15 06:58:05;;;;;;;1.87;1.77;;;9.60;97.30;;;;;;5304183;26;20572;-65
2024/04/15 07:00:31;;;;;;;3.33;2.30;;;9.70;97.30;;;;;;5316835;26;20243;-63
2024/04/15 07:02:56;;;;;;;1.63;1.27;;;9.60;97.30;;;;;;5305815;26;20240;-64
2024/04/15 07:05:22;;;;;;;4.20;2.27;;;9.70;97.30;;;;;;5302853;26;21024;-62
2024/04/15 07:07:47;;;;;;;2.70;1.77;;;9.70;97.30;;;;;;5314101;26;20279;-65
2024/04/15 07:10:13;;;;;;;1.67;1.53;;;9.70;97.30;;;;;;5322357;26;20750;-62
2024/04/15 07:12:39;;;;;;;1.30;1.20;;;9.70;97.30;;;;;;5304164;26;20228;-64
2024/04/15 07:15:05;;;;;;;1.33;1.23;;;9.70;97.30;;;;;;5316445;26;20562;-63
2024/04/15 07:17:31;;;;;;;1.57;1.50;;;9.80;97.30;;;;;;5332471;26;20330;-64
2024/04/15 07:19:56;;;;;;;1.40;1.30;;;9.90;97.30;;;;;;5304317;26;20471;-64
2024/04/15 07:22:22;;;;;;;8.07;1.40;;;9.80;97.30;;;;;;5305544;26;20248;-64
2024/04/15 07:24:49;;;;;;;1.03;0.97;;;9.70;97.30;;;;;;5324060;26;20231;-66
2024/04/15 07:27:14;;;;;;;1.23;1.13;;;9.70;97.30;;;;;;5324872;26;20517;-64
2024/04/15 07:29:40;;;;;;;1.07;0.97;;;9.70;97.30;;;;;;5300127;26;20519;-62
2024/04/15 07:32:05;;;;;;;1.10;1.00;;;9.80;97.30;;;;;;5300213;26;20825;-64
2024/04/15 07:34:31;;;;;;;1.17;1.07;;;9.90;97.30;;;;;;5319609;26;20304;-63
2024/04/15 07:36:56;;;;;;;1.00;0.90;;;9.90;97.30;;;;;;5301800;26;20272;-65
2024/04/15 07:39:22;;;;;;;1.73;1.63;;;10.00;97.30;;;;;;5306084;26;20235;-65
2024/04/15 07:41:47;;;;;;;1.57;1.47;;;10.10;97.30;;;;;;5307269;26;20279;-66
2024/04/15 07:44:13;;;;;;;1.13;1.03;;;10.30;97.30;;;;;;5307956;26;20232;-65
2024/04/15 07:46:38;;;;;;;1.60;1.40;;;10.30;97.30;;;;;;5327432;26;20274;-65
2024/04/15 07:49:04;;;;;;;1.33;1.23;;;10.20;97.30;;;;;;5311948;26;20289;-63
2024/04/15 07:51:29;;;;;;;1.17;1.03;;;10.10;97.30;;;;;;5335411;26;20232;-64
2024/04/15 07:53:55;;;;;;;1.10;1.00;;;10.10;97.30;;;;;;5307322;26;20580;-66
2024/04/15 07:56:20;;;;;;;1.53;1.43;;;10.20;97.30;;;;;;5306726;26;20247;-64
2024/04/15 07:58:46;;;;;;;1.47;1.37;;;10.30;97.30;;;;;;5307186;26;20232;-62
2024/04/15 08:01:11;;;;;;;2.50;2.27;;;10.50;97.30;;;;;;5306515;26;20315;-67
2024/04/15 08:03:37;;;;;;;1.00;0.90;;;10.60;97.30;;;;;;5325701;26;20289;-64
2024/04/15 08:06:03;;;;;;;14.00;1.50;;;10.60;97.30;;;;;;5341202;26;20231;-63
2024/04/15 08:08:28;;;;;;;0.90;0.90;;;10.70;97.30;;;;;;5340292;26;20243;-65
2024/04/15 08:10:54;;;;;;;1.97;1.87;;;10.90;97.30;;;;;;5341165;26;20394;-68
2024/04/15 08:13:19;;;;;;;2.23;2.03;;;11.00;97.30;;;;;;5340797;26;20730;-63
2024/04/15 08:15:48;;;;;;;1.43;1.33;;;11.10;97.30;;;;;;5318978;26;20277;-63
2024/04/15 08:18:13;;;;;;;1.57;1.47;;;11.10;97.30;;;;;;5346159;26;20786;-63
2024/04/15 08:20:39;;;;;;;2.10;1.73;;;11.30;97.30;;;;;;5310131;26;20604;-62
2024/04/15 08:23:04;;;;;;;1.10;1.00;;;11.30;97.30;;;;;;5323424;26;20230;-64
2024/04/15 08:25:30;;;;;;;1.33;1.23;;;11.50;97.30;;;;;;5310709;26;20291;-63
2024/04/15 08:27:56;;;;;;;1.00;0.90;;;11.50;97.30;;;;;;5309846;26;20243;-63
2024/04/15 08:30:22;;;;;;;2.33;2.17;;;11.60;97.30;;;;;;5340192;26;20235;-63
2024/04/15 08:32:50;;;;;;;1.20;1.10;;;11.60;97.30;;;;;;5340924;26;20231;-62
2024/04/15 08:35:17;;;;;;;1.20;1.17;;;11.80;97.30;;;;;;5333682;26;20524;-64
2024/04/15 08:37:42;;;;;;;1.40;1.30;;;12.10;97.30;;;;;;5341103;26;20857;-65
2024/04/15 08:40:09;;;;;;;1.37;1.27;;;12.10;97.30;;;;;;5304551;26;21042;-64
2024/04/15 08:42:52;;;;;;;1.07;0.97;;;11.80;97.30;;;;;;5339774;26;20750;-64
2024/04/15 08:45:19;;;;;;;1.53;1.43;;;11.60;97.30;;;;;;5310296;26;20526;-63
2024/04/15 08:47:53;;;;;;;1.00;0.90;;;11.50;97.30;;;;;;5340478;26;20469;-65
2024/04/15 08:50:20;;;;;;;1.13;1.13;;;11.40;97.30;;;;;;5336631;26;20473;-64
2024/04/15 08:52:50;;;;;;;1.73;1.57;;;11.30;97.30;;;;;;5340351;26;20518;-64
2024/04/15 08:55:16;;;;;;;1.10;1.00;;;11.40;97.30;;;;;;5336778;26;20465;-65
2024/04/15 08:57:45;;;;;;;1.23;1.20;;;11.30;97.30;;;;;;5310115;26;20473;-62
2024/04/15 09:00:14;;;;;;;1.00;0.90;;;11.40;97.30;;;;;;5340384;26;20449;-61
2024/04/15 09:02:40;;;;;;;2.50;2.03;;;11.50;97.30;;;;;;5341024;26;20632;-64
2024/04/15 09:05:05;;;;;;;1.10;1.00;;;11.50;97.30;;;;;;5318749;26;20849;-62
2024/04/15 09:07:31;;;;;;;1.63;1.53;;;11.50;97.30;;;;;;5366959;26;20330;-63
2024/04/15 09:09:56;;;;;;;1.03;0.93;;;11.50;97.30;;;;;;5340619;26;20243;-62
2024/04/15 09:12:22;;;;;;;1.17;1.07;;;11.50;97.30;;;;;;5338402;26;20733;-65
2024/04/15 09:14:47;;;;;;;1.03;0.93;;;11.50;97.30;;;;;;5354518;26;20762;-64
2024/04/15 09:17:15;;;;;;;21.13;3.00;;;11.60;97.30;;;;;;5323890;26;20235;-63
2024/04/15 09:19:41;;;;;;;1.37;1.33;;;11.70;97.30;;;;;;5302105;26;20333;-63
2024/04/15 09:22:07;;;;;;;1.30;1.13;;;12.10;97.30;;;;;;5349107;26;20461;-66
2024/04/15 09:24:34;;;;;;;1.33;1.23;;;12.40;97.30;;;;;;5324194;26;20464;-65
2024/04/15 09:26:59;;;;;;;1.67;1.10;;;12.50;97.30;;;;;;5355098;26;20518;-63
2024/04/15 09:29:25;;;;;;;1.10;0.97;;;12.40;97.30;;;;;;5340425;26;20985;-64
2024/04/15 09:31:50;;;;;;;1.13;1.13;;;12.50;97.30;;;;;;5340251;26;20564;-64
2024/04/15 09:34:16;;;;;;;1.83;1.73;;;12.40;97.30;;;;;;5369581;26;20293;-63
2024/04/15 09:36:42;;;;;;;1.00;0.90;;;12.30;97.30;;;;;;5318298;26;20735;-62
2024/04/15 09:39:07;;;;;;;7.03;1.90;;;12.40;97.30;;;;;;5373939;26;20239;-64
2024/04/15 09:41:34;;;;;;;1.60;1.50;;;12.70;97.30;;;;;;5339710;26;20231;-65
2024/04/15 09:44:00;;;;;;;1.30;1.20;;;12.90;97.30;;;;;;5309734;26;20297;-60
2024/04/15 09:46:31;;;;;;;1.37;1.00;;;13.10;97.30;;;;;;5311322;26;20924;-62
2024/04/15 09:48:57;;;;;;;1.40;1.30;;;13.00;97.30;;;;;;5364854;26;20521;-62
2024/04/15 09:51:23;;;;;;;1.67;1.57;;;13.30;97.30;;;;;;5355247;26;20824;-60
2024/04/15 09:53:53;;;;;;;1.53;1.43;;;13.50;97.30;;;;;;5352729;26;20569;-61
2024/04/15 09:56:25;;;;;;;2.80;1.67;;;13.70;97.30;;;;;;5303385;26;20463;-63
2024/04/15 09:58:55;;;;;;;1.00;0.90;;;13.60;97.30;;;;;;5339934;26;20465;-63
2024/04/15 10:01:25;;;;;;;1.33;1.20;;;13.40;97.30;;;;;;5353933;26;20812;-63
2024/04/15 10:03:55;;;;;;;4.70;2.80;;;13.40;97.30;;;;;;5331163;26;20597;-64
2024/04/15 10:06:30;;;;;;;1.00;0.90;;;13.40;97.30;;;;;;5314082;26;20469;-61
2024/04/15 10:09:00;;;;;;;1.17;1.00;;;13.30;96.00;;;;;;5309495;26;20918;-63
2024/04/15 10:11:29;;;;;;;5.80;3.13;;;13.30;96.70;;;;;;5320336;26;20573;-64
2024/04/15 10:13:57;;;;;;;1.77;1.67;;;13.30;96.90;;;;;;5339506;26;20465;-62
2024/04/15 10:16:22;;;;;;;6.10;1.40;;;13.20;96.20;;;;;;5339483;26;21083;-62
2024/04/15 10:18:52;;;;;;;1.13;1.10;;;13.30;97.30;;;;;;5353087;26;20465;-65
2024/04/15 10:21:18;;;;;;;1.33;1.23;;;13.20;97.30;;;;;;5308956;26;20787;-65
2024/04/15 10:23:44;;;;;;;2.13;1.80;;;13.10;97.30;;;;;;5353007;26;20890;-63
2024/04/15 10:26:10;;;;;;;1.70;1.60;;;13.20;97.30;;;;;;5309050;26;20587;-63
2024/04/15 10:28:36;;;;;;;1.37;1.27;;;13.60;97.30;;;;;;5342659;26;20592;-66
2024/04/15 10:31:01;;;;;;;2.50;1.23;;;13.60;97.30;;;;;;5364149;26;20469;-63
2024/04/15 10:33:27;;;;;;;1.10;1.10;;;13.50;96.90;;;;;;5308640;26;20231;-64
2024/04/15 10:35:54;;;;;;;1.30;1.20;;;13.50;97.20;;;;;;5308961;26;20628;-63
2024/04/15 10:38:19;;;;;;;6.00;1.80;;;13.80;97.30;;;;;;5338892;26;20242;-62
2024/04/15 10:40:49;;;;;;;1.30;1.20;;;14.10;96.20;;;;;;5338884;26;20618;-60
2024/04/15 10:43:17;;;;;;;12.53;2.10;;;14.40;95.80;;;;;;5308896;26;20758;-62
2024/04/15 10:45:44;;;;;;;1.90;1.40;;;14.30;95.10;;;;;;5338722;26;20585;-63
2024/04/15 10:48:10;;;;;;;1.20;1.10;;;14.50;96.20;;;;;;5308235;26;20872;-60
2024/04/15 10:50:35;;;;;;;2.20;1.57;;;14.50;96.00;;;;;;5338753;26;20476;-64
2024/04/15 10:53:01;;;;;;;1.00;0.90;;;14.40;96.30;;;;;;5308608;26;20273;-62
2024/04/15 10:55:27;;;;;;;2.63;1.70;;;14.30;96.10;;;;;;5338787;26;20703;-62
2024/04/15 10:57:53;;;;;;;15.10;1.77;;;14.10;95.00;;;;;;5308264;26;20282;-61
2024/04/15 11:00:23;;;;;;;1.67;1.57;;;14.00;96.20;;;;;;5339137;26;20584;-62
2024/04/15 11:02:50;;;;;;;1.43;1.33;;;14.00;96.00;;;;;;5342132;26;20238;-62
2024/04/15 11:05:17;;;;;;;1.80;1.70;;;14.00;96.30;;;;;;5324382;26;20500;-62
2024/04/15 11:07:43;;;;;;;3.60;1.50;;;14.20;95.90;;;;;;5342637;26;20859;-62
2024/04/15 11:10:10;;;;;;;1.90;1.83;;;14.60;96.30;;;;;;5311256;26;20516;-63
2024/04/15 11:12:36;;;;;;;1.93;1.87;;;15.00;94.20;;;;;;5341561;26;20557;-62
2024/04/15 11:15:03;;;;;;;2.27;2.07;;;15.40;93.50;;;;;;5311007;26;20520;-63
2024/04/15 11:17:30;;;;;;;1.80;1.70;;;15.50;92.70;;;;;;5341471;26;20560;-64
2024/04/15 11:20:05;;;;;;;2.43;1.20;;;15.50;92.90;;;;;;5311419;26;20610;-62
2024/04/15 11:22:31;;;;;;;1.30;1.20;;;15.80;94.30;;;;;;5370888;26;20471;-62
2024/04/15 11:24:56;;;;;;;2.63;2.40;;;15.90;93.20;;;;;;5333763;26;20468;-61
2024/04/15 11:27:25;;;;;;;1.40;1.30;;;15.90;91.50;;;;;;5317770;26;20868;-61
2024/04/15 11:29:50;;;;;;;2.30;1.20;;;16.00;93.30;;;;;;5356570;26;20340;-63
2024/04/15 11:32:16;;;;;;;2.40;2.30;;;16.40;92.10;;;;;;5341511;26;20477;-62
2024/04/15 11:34:43;;;;;;;4.80;1.50;;;16.60;91.10;;;;;;5370863;26;20272;-62
2024/04/15 11:37:09;;;;;;;1.27;1.10;;;16.50;91.30;;;;;;5364802;26;20476;-63
2024/04/15 11:39:36;;;;;;;1.57;1.50;;;16.60;91.10;;;;;;5325323;26;20461;-62
2024/04/15 11:42:01;;;;;;;2.30;1.73;;;16.60;89.70;;;;;;5341732;26;20533;-61
2024/04/15 11:44:27;;;;;;;1.20;1.10;;;16.70;89.60;;;;;;5339532;26;20472;-63
2024/04/15 11:46:56;;;;;;;3.00;1.93;;;16.50;89.30;;;;;;5336825;26;20290;-63
2024/04/15 11:49:21;;;;;;;2.00;1.90;;;16.50;90.50;;;;;;5327678;26;20231;-63
2024/04/15 11:51:47;;;;;;;1.40;1.30;;;16.70;91.50;;;;;;5341696;26;20542;-64
2024/04/15 11:54:13;;;;;;;1.83;1.47;;;16.60;92.10;;;;;;5316067;26;20236;-63
2024/04/15 11:56:39;;;;;;;1.27;1.17;;;16.40;91.90;;;;;;5302541;26;20732;-62
2024/04/15 11:59:06;;;;;;;1.37;1.27;;;16.50;91.20;;;;;;5321051;26;20582;-62
2024/04/15 12:01:32;;;;;;;3.97;2.20;;;16.60;92.00;;;;;;5336820;26;20731;-63
2024/04/15 12:03:58;;;;;;;1.40;1.30;;;16.50;91.30;;;;;;5304289;27;20559;-62
2024/04/15 12:06:23;;;;;;;1.70;1.60;;;16.60;90.50;;;;;;5305481;26;20278;-62
2024/04/15 12:08:50;;;;;;;2.70;2.07;;;16.90;92.20;;;;;;5311799;26;20632;-63
2024/04/15 12:11:18;;;;;;;2.37;2.17;;;17.50;90.00;;;;;;5316570;26;20236;-62
2024/04/15 12:13:43;;;;;;;6.63;1.90;;;17.90;87.00;;;;;;5335189;26;21108;-62
2024/04/15 12:16:09;;;;;;;1.50;1.40;;;17.90;84.20;;;;;;5321678;26;20483;-63
2024/04/15 12:18:35;;;;;;;4.53;2.00;;;17.40;83.60;;;;;;5323430;26;20278;-63
2024/04/15 12:21:01;;;;;;;1.83;1.30;;;17.10;85.10;;;;;;5327937;26;21036;-60
2024/04/15 12:23:26;;;;;;;1.37;1.30;;;16.80;84.40;;;;;;5340908;26;20310;-63
2024/04/15 12:25:52;;;;;;;9.50;2.80;;;16.60;85.40;;;;;;5361649;26;20558;-63
2024/04/15 12:28:17;;;;;;;0.97;0.90;;;16.60;85.90;;;;;;5365104;26;20792;-61
2024/04/15 12:30:43;;;;;;;3.43;2.07;;;17.00;87.20;;;;;;5314247;26;20239;-65
2024/04/15 12:33:09;;;;;;;2.60;2.03;;;17.10;86.40;;;;;;5322073;26;20364;-62
2024/04/15 12:35:34;;;;;;;1.43;1.27;;;17.10;87.20;;;;;;5341049;26;20223;-64
2024/04/15 12:38:00;;;;;;;2.60;1.47;;;16.80;85.40;;;;;;5305217;26;20292;-62
2024/04/15 12:40:25;;;;;;;1.40;1.30;;;16.70;86.10;;;;;;5317019;26;20327;-62
2024/04/15 12:42:51;;;;;;;2.13;0.90;;;16.70;87.50;;;;;;5341869;26;20242;-62
2024/04/15 12:45:16;;;;;;;1.93;1.30;;;16.60;88.20;;;;;;5341172;26;20594;-62
2024/04/15 12:47:42;;;;;;;1.47;1.37;;;16.60;89.00;;;;;;5310267;26;20336;-62
2024/04/15 12:50:09;;;;;;;1.00;0.90;;;16.50;87.50;;;;;;5341089;26;20295;-62
2024/04/15 12:52:35;;;;;;;1.30;1.20;;;16.40;88.60;;;;;;5340917;26;20505;-65
2024/04/15 12:55:00;;;;;;;6.73;2.30;;;16.10;88.10;;;;;;5347667;26;20456;-63
2024/04/15 12:57:26;;;;;;;1.27;1.20;;;16.00;90.20;;;;;;5347687;26;20352;-63
2024/04/15 12:59:51;;;;;;;1.77;1.63;;;15.90;89.80;;;;;;5342962;26;20242;-63
2024/04/15 13:02:17;;;;;;;1.47;1.07;;;15.90;89.70;;;;;;5349820;26;20361;-64
2024/04/15 13:04:43;;;;;;;6.43;1.50;;;15.90;90.20;;;;;;5340050;26;20234;-62
2024/04/15 13:07:09;;;;;;;1.30;1.00;;;15.90;90.00;;;;;;5340551;26;20226;-62
2024/04/15 13:09:36;;;;;;;2.70;1.83;;;15.80;88.50;;;;;;5369164;26;20528;-62
2024/04/15 13:12:01;;;;;;;5.63;2.10;;;15.90;89.30;;;;;;5340740;26;20449;-61
2024/04/15 13:14:27;;;;;;;1.00;0.90;;;16.20;89.60;;;;;;5340510;26;20573;-61
2024/04/15 13:16:52;;;;;;;1.10;0.90;;;16.50;88.30;;;;;;5339887;26;20280;-61
2024/04/15 13:19:18;;;;;;;3.43;2.13;;;16.70;88.50;;;;;;5323924;26;20656;-61
2024/04/15 13:21:44;;;;;;;1.63;1.33;;;17.20;88.30;;;;;;5320526;26;20663;-62
2024/04/15 13:24:10;;;;;;;1.23;1.07;;;17.60;86.80;;;;;;5308336;26;20549;-62
2024/04/15 13:26:37;;;;;;;2.00;1.50;;;17.80;86.90;;;;;;5323744;26;20597;-60
2024/04/15 13:29:02;;;;;;;2.60;2.40;;;17.90;86.10;;;;;;5323660;26;20238;-62
2024/04/15 13:31:28;;;;;;;1.40;1.17;;;17.70;85.40;;;;;;5340048;26;20521;-64
2024/04/15 13:33:54;;;;;;;1.23;1.13;;;17.60;86.80;;;;;;5339914;26;20650;-62
2024/04/15 13:36:20;;;;;;;1.57;1.47;;;17.40;85.90;;;;;;5340431;26;20230;-62
2024/04/15 13:38:45;;;;;;;1.33;1.23;;;17.20;86.30;;;;;;5340236;26;20577;-64
2024/04/15 13:41:11;;;;;;;2.00;1.67;;;17.20;87.70;;;;;;5307180;26;20227;-62
2024/04/15 13:43:37;;;;;;;1.77;1.67;;;17.10;86.40;;;;;;5311023;26;20759;-62
2024/04/15 13:46:03;;;;;;;2.53;1.67;;;17.40;85.70;;;;;;5341932;26;20532;-63
2024/04/15 13:48:29;;;;;;;1.30;1.20;;;17.40;85.60;;;;;;5305549;26;20522;-62
2024/04/15 13:50:54;;;;;;;1.73;1.27;;;17.50;85.90;;;;;;5345108;26;20292;-63
2024/04/15 13:53:20;;;;;;;1.30;1.20;;;17.90;87.10;;;;;;5320841;26;20235;-62
2024/04/15 13:55:45;;;;;;;1.23;1.13;;;18.20;86.30;;;;;;5340493;26;20320;-62
2024/04/15 13:58:11;;;;;;;2.90;2.20;;;18.60;86.40;;;;;;5353680;26;20223;-63
2024/04/15 14:00:36;;;;;;;2.07;1.73;;;18.90;84.20;;;;;;5309050;26;20634;-62
2024/04/15 14:03:02;;;;;;;5.03;1.13;;;19.10;84.10;;;;;;5316762;26;20639;-63
2024/04/15 14:05:28;;;;;;;1.30;1.20;;;19.10;83.30;;;;;;5302777;26;20334;-63
2024/04/15 14:07:53;;;;;;;1.43;1.43;;;18.60;82.70;;;;;;5317385;26;20230;-61
2024/04/15 14:10:19;;;;;;;1.00;1.00;;;18.70;83.00;;;;;;5319491;26;20232;-63
2024/04/15 14:12:44;;;;;;;0.97;0.87;;;19.10;81.10;;;;;;5320781;26;20224;-63
2024/04/15 14:15:10;;;;;;;1.13;1.10;;;19.80;80.80;;;;;;5317666;26;20282;-63
2024/04/15 14:17:36;;;;;;;2.83;1.40;;;20.40;78.90;;;;;;5303089;26;20248;-62
2024/04/15 14:20:03;;;;;;;1.00;1.00;;;20.50;78.50;;;;;;5302806;26;20303;-62
2024/04/15 14:22:30;;;;;;;1.70;1.43;;;20.20;77.70;;;;;;5330003;26;20235;-62
2024/04/15 14:24:55;;;;;;;1.10;1.00;;;20.10;81.30;;;;;;5306723;26;20815;-65
2024/04/15 14:27:21;;;;;;;2.73;2.43;;;19.90;79.10;;;;;;5313403;26;20563;-62
2024/04/15 14:29:47;;;;;;;1.47;1.37;;;19.20;78.70;;;;;;5323024;26;20227;-62
2024/04/15 14:32:12;;;;;;;1.50;1.40;;;19.00;78.50;;;;;;5326998;26;20239;-65
2024/04/15 14:34:38;;;;;;;1.00;0.90;;;18.80;80.70;;;;;;5310520;26;20275;-62
2024/04/15 14:37:03;;;;;;;1.63;1.30;;;18.70;81.00;;;;;;5304451;26;20330;-62
2024/04/15 14:39:29;;;;;;;1.33;1.10;;;18.90;80.10;;;;;;5304930;26;20228;-62
2024/04/15 14:41:55;;;;;;;1.30;1.20;;;19.00;79.60;;;;;;5304091;26;20237;-63
2024/04/15 14:44:20;;;;;;;0.90;0.80;;;18.80;81.20;;;;;;5325352;26;20241;-64
2024/04/15 14:46:47;;;;;;;1.30;1.00;;;18.40;81.10;;;;;;5310538;26;20229;-66
2024/04/15 14:49:13;;;;;;;1.00;0.90;;;18.10;79.60;;;;;;5316974;26;20228;-63
2024/04/15 14:51:39;;;;;;;1.23;1.20;;;18.00;79.30;;;;;;5319015;26;21127;-63
2024/04/15 14:54:05;;;;;;;1.10;1.00;;;18.30;79.80;;;;;;5290616;26;20270;-63
2024/04/15 14:56:31;;;;;;;1.00;0.90;;;19.00;79.60;;;;;;5304158;26;20338;-63
2024/04/15 14:58:57;;;;;;;1.17;1.07;;;19.70;77.70;;;;;;5302663;26;20228;-63
2024/04/15 15:01:22;;;;;;;0.90;0.80;;;20.50;78.30;;;;;;5304064;26;20482;-63
2024/04/15 15:03:48;;;;;;;1.00;0.90;;;20.50;75.60;;;;;;5325296;26;21057;-63
2024/04/15 15:06:14;;;;;;;1.43;1.27;;;19.90;75.70;;;;;;5337977;26;20234;-64
2024/04/15 15:08:42;;;;;;;0.90;0.80;;;19.20;77.00;;;;;;5338973;26;20273;-63
2024/04/15 15:11:08;;;;;;;1.00;0.90;;;18.70;77.30;;;;;;5331618;26;20233;-63
2024/04/15 15:13:34;;;;;;;1.10;1.00;;;18.40;77.60;;;;;;5316101;26;20572;-63
2024/04/15 15:16:00;;;;;;;1.33;1.30;;;18.30;78.20;;;;;;5337929;26;20273;-62
2024/04/15 15:18:25;;;;;;;1.10;1.00;;;18.20;79.30;;;;;;5352974;26;20556;-62
2024/04/15 15:20:51;;;;;;;1.53;1.43;;;18.30;79.50;;;;;;5321800;26;20239;-63
2024/04/15 15:23:16;;;;;;;2.20;1.10;;;18.40;79.00;;;;;;5338284;26;20687;-62
2024/04/15 15:25:42;;;;;;;1.10;1.00;;;18.40;78.40;;;;;;5337847;26;20618;-63
2024/04/15 15:28:08;;;;;;;1.00;0.97;;;18.60;78.30;;;;;;5338098;26;20270;-64
2024/04/15 15:30:35;;;;;;;3.93;2.10;;;18.90;77.20;;;;;;5308211;26;20278;-62
2024/04/15 15:33:01;;;;;;;1.03;0.90;;;18.80;76.50;;;;;;5337716;26;20749;-62
2024/04/15 15:35:26;;;;;;;1.57;1.10;;;18.70;76.70;;;;;;5338602;26;20465;-62
2024/04/15 15:37:52;;;;;;;0.90;0.80;;;18.60;78.40;;;;;;5321753;26;20255;-63
2024/04/15 15:40:17;;;;;;;0.90;0.80;;;18.40;78.40;;;;;;5346822;26;20234;-62
2024/04/15 15:42:43;;;;;;;0.70;0.70;;;18.20;78.40;;;;;;5343633;26;20227;-64
2024/04/15 15:45:09;;;;;;;0.90;0.90;;;18.10;78.80;;;;;;5307431;26;20849;-65
2024/04/15 15:47:34;;;;;;;1.00;0.90;;;17.80;77.00;;;;;;5337027;26;20689;-63
2024/04/15 15:50:00;;;;;;;0.90;0.87;;;17.60;78.60;;;;;;5310199;26;20227;-64
2024/04/15 15:52:26;;;;;;;1.10;1.10;;;17.50;78.90;;;;;;5341237;26;20274;-63
2024/04/15 15:54:51;;;;;;;1.00;0.90;;;17.30;80.60;;;;;;5310820;26;20234;-64
2024/04/15 15:57:17;;;;;;;1.63;1.27;;;17.30;84.00;;;;;;5310633;26;20934;-63
2024/04/15 15:59:43;;;;;;;2.40;1.80;;;17.10;85.50;;;;;;5311194;26;20329;-65
2024/04/15 16:02:08;;;;;;;2.20;1.53;;;16.70;85.70;;;;;;5345064;26;20718;-64
2024/04/15 16:04:34;;;;;;;1.27;1.17;;;16.50;84.30;;;;;;5319221;26;20519;-64
2024/04/15 16:07:01;;;;;;;1.83;1.00;;;16.30;85.10;;;;;;5355198;26;20239;-63
2024/04/15 16:09:27;;;;;;;1.40;1.30;;;16.10;85.20;;;;;;5351279;26;20272;-64
2024/04/15 16:11:52;;;;;;;2.63;1.67;;;16.00;85.30;;;;;;5346582;26;20473;-64
2024/04/15 16:14:18;;;;;;;2.63;1.73;;;15.90;84.90;;;;;;5353869;26;20660;-64
2024/04/15 16:16:43;;;;;;;2.00;1.87;;;15.80;86.80;;;;;;5275959;21;20603;-69
2024/04/15 16:19:10;;;;;;;1.97;1.87;;;15.70;87.60;;;;;;5270800;27;20240;-65
2024/04/15 16:21:39;;;;;;;6.60;1.43;;;15.70;88.00;;;;;;5270869;27;20256;-69
2024/04/15 16:24:06;;;;;;;1.10;0.90;;;15.60;88.60;;;;;;5286886;27;20477;-67
2024/04/15 16:26:33;;;;;;;0.90;0.80;;;15.50;87.20;;;;;;5286972;27;20529;-68
2024/04/15 16:28:59;;;;;;;3.07;1.10;;;15.50;86.20;;;;;;5271208;27;20499;-66
2024/04/15 16:31:24;;;;;;;1.47;1.37;;;15.50;83.90;;;;;;5270495;27;20493;-66
2024/04/15 16:33:50;;;;;;;1.13;1.10;;;15.50;85.40;;;;;;5270656;27;20464;-66
2024/04/15 16:36:15;;;;;;;1.00;0.90;;;15.50;84.60;;;;;;5279240;27;20732;-65
2024/04/15 16:38:41;;;;;;;1.00;0.90;;;15.50;84.30;;;;;;5292202;26;20266;-67
2024/04/15 16:41:06;;;;;;;0.90;0.80;;;15.50;84.20;;;;;;5302091;26;20241;-66
2024/04/15 16:43:32;;;;;;;0.93;0.90;;;15.40;84.40;;;;;;5270703;27;20272;-66
2024/04/15 16:45:58;;;;;;;1.10;1.00;;;15.40;84.70;;;;;;5270370;27;20717;-66
2024/04/15 16:48:23;;;;;;;1.00;0.90;;;15.30;85.20;;;;;;5270630;27;20233;-66